createdAt,value
2022-11-24T00:01:09.314Z,17.20
2022-11-24T00:03:42.591Z,17.30
2022-11-24T00:06:16.377Z,17.20
2022-11-24T00:08:48.710Z,17.10
2022-11-24T00:11:25.955Z,17.20
2022-11-24T00:13:59.701Z,17.10
2022-11-24T00:16:34.998Z,17.10
2022-11-24T00:19:09.683Z,17.10
2022-11-24T00:21:42.204Z,17.10
2022-11-24T00:24:14.759Z,17.10
2022-11-24T00:26:47.297Z,17.00
2022-11-24T00:29:19.983Z,17.00
2022-11-24T00:31:52.576Z,17.00
2022-11-24T00:34:25.107Z,17.00
2022-11-24T00:36:57.619Z,16.90
2022-11-24T00:39:30.145Z,16.90
2022-11-24T00:42:02.658Z,16.90
2022-11-24T00:44:35.298Z,16.90
2022-11-24T00:47:08.163Z,16.90
2022-11-24T00:49:40.719Z,16.90
2022-11-24T00:52:13.353Z,16.90
2022-11-24T00:54:45.820Z,16.90
2022-11-24T00:57:18.400Z,16.90
2022-11-24T00:59:50.929Z,16.80
2022-11-24T01:02:23.600Z,16.90
2022-11-24T01:04:56.254Z,16.80
2022-11-24T01:07:28.774Z,16.80
2022-11-24T01:10:01.494Z,16.80
2022-11-24T01:12:35.516Z,16.80
2022-11-24T01:15:09.389Z,16.80
2022-11-24T01:17:41.867Z,16.80
2022-11-24T01:20:14.836Z,16.80
2022-11-24T01:22:49.242Z,16.70
2022-11-24T01:25:21.782Z,16.70
2022-11-24T01:27:54.260Z,16.70
2022-11-24T01:30:26.820Z,16.70
2022-11-24T01:32:59.364Z,16.70
2022-11-24T01:35:32.000Z,16.70
2022-11-24T01:38:04.581Z,16.70
2022-11-24T01:40:37.211Z,16.70
2022-11-24T01:43:22.093Z,16.70
2022-11-24T01:45:56.238Z,16.70
2022-11-24T01:48:35.192Z,16.70
2022-11-24T01:51:28.987Z,16.70
2022-11-24T01:54:05.716Z,16.70
2022-11-24T01:56:41.003Z,16.60
2022-11-24T01:59:15.508Z,16.70
2022-11-24T02:01:51.829Z,16.70
2022-11-24T02:04:28.774Z,16.70
2022-11-24T02:07:03.754Z,16.70
2022-11-24T02:10:04.346Z,16.60
2022-11-24T02:12:39.172Z,16.60
2022-11-24T02:15:14.637Z,16.60
2022-11-24T02:17:47.153Z,16.70
2022-11-24T02:20:19.923Z,16.60
2022-11-24T02:23:04.705Z,16.60
2022-11-24T02:25:48.814Z,16.60
2022-11-24T02:28:23.782Z,16.60
2022-11-24T02:30:56.820Z,16.60
2022-11-24T02:33:30.283Z,16.60
2022-11-24T02:36:02.897Z,16.60
2022-11-24T02:38:36.213Z,16.60
2022-11-24T02:41:15.387Z,16.70
2022-11-24T02:43:55.393Z,16.70
2022-11-24T02:46:28.341Z,16.70
2022-11-24T02:49:00.847Z,16.60
2022-11-24T02:51:34.721Z,16.60
2022-11-24T02:54:07.181Z,16.60
2022-11-24T02:56:39.738Z,16.60
2022-11-24T02:59:12.310Z,16.60
2022-11-24T03:01:44.852Z,16.60
2022-11-24T03:04:17.435Z,16.60
2022-11-24T03:06:50.070Z,16.60
2022-11-24T03:09:22.599Z,16.60
2022-11-24T03:11:55.144Z,16.60
2022-11-24T03:14:27.786Z,16.60
2022-11-24T03:17:00.445Z,16.60
2022-11-24T03:19:33.382Z,16.60
2022-11-24T03:22:05.943Z,16.60
2022-11-24T03:24:38.527Z,16.60
2022-11-24T03:27:11.168Z,16.60
2022-11-24T03:29:43.575Z,16.50
2022-11-24T03:32:16.102Z,16.60
2022-11-24T03:34:48.622Z,16.50
2022-11-24T03:37:21.285Z,16.50
2022-11-24T03:39:53.727Z,16.50
2022-11-24T03:42:26.226Z,16.50
2022-11-24T03:45:04.257Z,16.60
2022-11-24T03:47:52.599Z,16.50
2022-11-24T03:50:25.211Z,16.50
2022-11-24T03:52:57.956Z,16.50
2022-11-24T03:55:30.438Z,16.50
2022-11-24T03:58:02.953Z,16.50
2022-11-24T04:00:35.483Z,16.50
2022-11-24T04:03:08.049Z,16.50
2022-11-24T04:05:40.643Z,16.50
2022-11-24T04:08:13.516Z,16.50
2022-11-24T04:10:49.471Z,16.50
2022-11-24T04:13:24.774Z,16.50
2022-11-24T04:15:57.363Z,16.50
2022-11-24T04:18:29.900Z,16.40
2022-11-24T04:21:02.435Z,16.40
2022-11-24T04:23:34.868Z,16.40
2022-11-24T04:26:08.188Z,16.40
2022-11-24T04:28:40.675Z,16.40
2022-11-24T04:31:13.188Z,16.40
2022-11-24T04:33:45.794Z,16.40
2022-11-24T04:36:18.260Z,16.40
2022-11-24T04:39:20.140Z,16.40
2022-11-24T04:41:48.469Z,16.40
2022-11-24T04:44:21.032Z,16.40
2022-11-24T04:46:53.683Z,16.50
2022-11-24T04:49:26.309Z,16.50
2022-11-24T04:51:59.464Z,16.50
2022-11-24T04:54:32.101Z,16.50
2022-11-24T04:57:05.048Z,16.50
2022-11-24T04:59:37.569Z,16.50
2022-11-24T05:02:10.735Z,16.50
2022-11-24T05:04:43.296Z,16.50
2022-11-24T05:07:19.173Z,16.50
2022-11-24T05:10:10.207Z,16.40
2022-11-24T05:12:47.054Z,16.40
2022-11-24T05:15:22.577Z,16.40
2022-11-24T05:17:55.602Z,16.40
2022-11-24T05:20:28.117Z,16.40
2022-11-24T05:23:05.330Z,16.40
2022-11-24T05:25:37.840Z,16.40
2022-11-24T05:28:10.800Z,16.40
2022-11-24T05:30:44.202Z,16.40
2022-11-24T05:33:20.919Z,16.40
2022-11-24T05:35:53.544Z,16.40
2022-11-24T05:38:26.834Z,16.40
2022-11-24T05:41:05.327Z,16.40
2022-11-24T05:43:37.886Z,16.40
2022-11-24T05:46:10.355Z,16.40
2022-11-24T05:48:42.899Z,16.40
2022-11-24T05:51:15.382Z,16.40
2022-11-24T05:53:47.982Z,16.40
2022-11-24T05:56:20.622Z,16.40
2022-11-24T05:58:53.192Z,16.40
2022-11-24T06:01:25.666Z,16.40
2022-11-24T06:03:58.121Z,16.40
2022-11-24T06:06:30.730Z,16.40
2022-11-24T06:09:03.310Z,16.40
2022-11-24T06:11:35.911Z,16.40
2022-11-24T06:14:11.363Z,16.40
2022-11-24T06:19:51.933Z,16.50
2022-11-24T06:22:24.402Z,16.50
2022-11-24T06:24:56.970Z,16.50
2022-11-24T06:27:29.561Z,16.60
2022-11-24T06:30:02.175Z,16.60
2022-11-24T06:32:34.903Z,16.70
2022-11-24T06:35:07.931Z,16.80
2022-11-24T06:37:41.161Z,17.00
2022-11-24T06:40:13.530Z,17.00
2022-11-24T06:42:51.616Z,17.20
2022-11-24T06:45:24.160Z,17.40
2022-11-24T06:47:56.854Z,17.50
2022-11-24T06:50:33.588Z,17.70
2022-11-24T06:53:08.091Z,17.90
2022-11-24T06:55:41.192Z,18.10
2022-11-24T06:58:13.613Z,18.20
2022-11-24T07:00:46.208Z,18.40
2022-11-24T07:03:19.863Z,18.50
2022-11-24T07:05:59.127Z,18.70
2022-11-24T07:08:31.764Z,18.80
2022-11-24T07:11:08.639Z,18.90
2022-11-24T07:13:41.308Z,19.00
2022-11-24T07:16:24.528Z,19.20
2022-11-24T07:18:57.381Z,19.30
2022-11-24T07:21:31.035Z,19.40
2022-11-24T07:24:03.676Z,19.50
2022-11-24T07:26:37.698Z,19.70
2022-11-24T07:29:10.303Z,19.70
2022-11-24T07:31:43.094Z,19.80
2022-11-24T07:34:15.821Z,19.90
2022-11-24T07:36:48.350Z,20.10
2022-11-24T07:39:20.934Z,20.20
2022-11-24T07:41:53.510Z,20.30
2022-11-24T07:44:26.174Z,20.30
2022-11-24T07:46:58.601Z,20.50
2022-11-24T07:49:31.103Z,20.60
2022-11-24T07:52:04.723Z,20.60
2022-11-24T07:54:37.254Z,20.70
2022-11-24T07:57:09.942Z,20.80
2022-11-24T07:59:42.454Z,20.80
2022-11-24T08:02:15.038Z,20.90
2022-11-24T08:04:47.753Z,20.90
2022-11-24T08:07:20.283Z,21.00
2022-11-24T08:09:52.756Z,21.10
2022-11-24T08:12:25.320Z,21.10
2022-11-24T08:14:57.770Z,21.20
2022-11-24T08:17:30.502Z,21.20
2022-11-24T08:20:03.086Z,21.30
2022-11-24T08:22:35.617Z,21.40
2022-11-24T08:25:08.612Z,21.40
2022-11-24T08:27:41.116Z,21.50
2022-11-24T08:30:14.216Z,21.50
2022-11-24T08:32:46.555Z,21.60
2022-11-24T08:35:19.166Z,21.60
2022-11-24T08:37:51.718Z,21.60
2022-11-24T08:40:24.399Z,21.70
2022-11-24T08:43:01.212Z,21.70
2022-11-24T08:45:38.235Z,21.70
2022-11-24T08:48:13.580Z,21.70
2022-11-24T08:50:46.149Z,21.70
2022-11-24T08:53:19.466Z,21.80
2022-11-24T08:55:52.111Z,21.80
2022-11-24T08:58:24.738Z,21.80
2022-11-24T09:01:10.582Z,21.70
2022-11-24T09:03:49.994Z,21.70
2022-11-24T09:06:26.296Z,21.70
2022-11-24T09:08:59.706Z,21.60
2022-11-24T09:11:34.346Z,21.70
2022-11-24T09:14:06.899Z,21.60
2022-11-24T09:16:39.559Z,21.60
2022-11-24T09:19:12.062Z,21.50
2022-11-24T09:21:44.517Z,21.50
2022-11-24T09:24:17.204Z,21.60
2022-11-24T09:26:49.908Z,21.60
2022-11-24T09:29:23.052Z,21.70
2022-11-24T09:31:55.688Z,21.80
2022-11-24T09:34:28.822Z,21.90
2022-11-24T09:37:01.934Z,22.00
2022-11-24T09:39:34.348Z,22.10
2022-11-24T09:42:48.087Z,22.10
2022-11-24T09:46:04.580Z,22.10
2022-11-24T09:48:42.061Z,22.10
2022-11-24T09:51:16.002Z,22.00
2022-11-24T09:54:11.191Z,21.90
2022-11-24T09:56:44.253Z,21.80
2022-11-24T09:59:23.196Z,21.60
2022-11-24T10:01:56.892Z,21.50
2022-11-24T10:04:39.703Z,21.40
2022-11-24T10:07:15.133Z,21.30
2022-11-24T10:10:02.255Z,21.30
2022-11-24T10:13:07.207Z,21.20
2022-11-24T10:15:43.091Z,21.20
2022-11-24T10:19:00.293Z,21.10
2022-11-24T10:22:08.584Z,21.10
2022-11-24T10:25:01.615Z,21.00
2022-11-24T10:27:55.221Z,20.90
2022-11-24T10:30:28.147Z,20.90
2022-11-24T10:33:13.345Z,21.00
2022-11-24T10:36:12.165Z,21.00
2022-11-24T10:39:05.557Z,21.10
2022-11-24T10:41:50.397Z,21.10
2022-11-24T10:44:22.990Z,21.10
2022-11-24T10:46:55.651Z,21.10
2022-11-24T10:49:32.704Z,21.10
2022-11-24T10:52:14.221Z,21.00
2022-11-24T10:54:56.741Z,21.00
2022-11-24T10:57:38.285Z,20.90
2022-11-24T11:00:20.007Z,20.90
2022-11-24T11:03:30.912Z,20.90
2022-11-24T11:06:11.929Z,20.90
2022-11-24T11:08:44.448Z,20.80
2022-11-24T11:11:29.964Z,20.80
2022-11-24T11:14:05.585Z,20.80
2022-11-24T11:17:25.905Z,20.80
2022-11-24T11:20:03.630Z,20.70
2022-11-24T11:22:38.689Z,20.70
2022-11-24T11:25:11.143Z,20.70
2022-11-24T11:27:43.769Z,20.60
2022-11-24T11:36:25.515Z,20.70
2022-11-24T11:38:58.869Z,20.60
2022-11-24T11:41:35.735Z,20.60
2022-11-24T11:44:32.671Z,20.60
2022-11-24T11:47:45.720Z,20.60
2022-11-24T11:51:14.816Z,20.60
2022-11-24T11:53:48.595Z,20.50
2022-11-24T11:56:23.857Z,20.50
2022-11-24T11:58:56.378Z,20.50
2022-11-24T12:01:43.908Z,20.50
2022-11-24T12:04:35.532Z,20.40
2022-11-24T12:07:23.176Z,20.40
2022-11-24T12:10:28.760Z,20.30
2022-11-24T12:13:17.400Z,20.30
2022-11-24T12:15:59.290Z,20.20
2022-11-24T12:21:32.918Z,20.20
2022-11-24T12:24:15.300Z,20.10
2022-11-24T12:27:22.254Z,20.10
2022-11-24T12:30:12.118Z,20.10
2022-11-24T12:33:03.297Z,20.10
2022-11-24T12:35:35.830Z,20.10
2022-11-24T12:38:28.862Z,20.00
2022-11-24T12:41:42.214Z,20.00
2022-11-24T12:45:00.112Z,20.00
2022-11-24T12:47:55.347Z,20.00
2022-11-24T12:50:30.029Z,20.00
2022-11-24T12:53:25.796Z,20.00
2022-11-24T12:56:13.316Z,19.90
2022-11-24T12:59:10.225Z,19.90
2022-11-24T13:02:24.006Z,19.90
2022-11-24T13:05:13.883Z,19.90
2022-11-24T13:07:58.109Z,19.80
2022-11-24T13:10:54.934Z,19.80
2022-11-24T13:14:01.737Z,19.80
2022-11-24T13:16:41.114Z,19.90
2022-11-24T13:19:36.776Z,19.90
2022-11-24T13:22:09.504Z,19.90
2022-11-24T13:24:45.051Z,19.90
2022-11-24T13:27:19.109Z,19.90
2022-11-24T13:29:53.051Z,19.90
2022-11-24T13:32:45.869Z,19.90
2022-11-24T13:35:18.810Z,19.90
2022-11-24T13:37:53.030Z,19.80
2022-11-24T13:40:31.377Z,19.80
2022-11-24T13:43:03.820Z,19.80
2022-11-24T13:45:42.742Z,19.80
2022-11-24T13:48:22.002Z,19.80
2022-11-24T13:51:01.867Z,19.80
2022-11-24T13:53:48.024Z,19.80
2022-11-24T13:56:26.626Z,19.80
2022-11-24T13:59:17.315Z,19.80
2022-11-24T14:01:57.841Z,19.80
2022-11-24T14:04:32.642Z,19.80
2022-11-24T14:07:10.344Z,19.80
2022-11-24T14:09:45.976Z,19.80
2022-11-24T14:12:23.951Z,19.80
2022-11-24T14:15:25.677Z,19.80
2022-11-24T14:17:58.200Z,19.80
2022-11-24T14:20:30.793Z,19.80
2022-11-24T14:23:04.377Z,19.80
2022-11-24T14:25:37.074Z,19.80
2022-11-24T14:28:28.129Z,19.80
2022-11-24T14:31:33.997Z,19.80
2022-11-24T14:34:12.686Z,19.80
2022-11-24T14:36:45.367Z,19.80
2022-11-24T14:39:20.408Z,19.80
2022-11-24T14:42:08.231Z,19.80
2022-11-24T14:45:04.055Z,19.80
2022-11-24T14:47:45.748Z,19.80
2022-11-24T14:50:22.470Z,19.80
2022-11-24T14:52:57.280Z,19.80
2022-11-24T14:55:39.415Z,19.70
2022-11-24T14:58:30.542Z,19.70
2022-11-24T15:01:23.082Z,19.70
2022-11-24T15:04:32.323Z,19.70
2022-11-24T15:07:13.528Z,19.70
2022-11-24T15:09:49.186Z,19.70
2022-11-24T15:12:29.321Z,19.70
2022-11-24T15:15:15.910Z,19.70
2022-11-24T15:17:54.776Z,19.70
2022-11-24T15:20:37.961Z,19.70
2022-11-24T15:23:28.831Z,19.70
2022-11-24T15:26:04.196Z,19.80
2022-11-24T15:28:36.731Z,19.80
2022-11-24T15:31:14.208Z,19.80
2022-11-24T15:33:46.815Z,19.80
2022-11-24T15:36:21.031Z,19.80
2022-11-24T15:38:53.512Z,19.80
2022-11-24T15:41:31.578Z,19.80
2022-11-24T15:44:04.162Z,19.70
2022-11-24T15:46:38.896Z,19.70
2022-11-24T15:49:11.372Z,19.70
2022-11-24T15:51:46.034Z,19.70
2022-11-24T15:54:19.448Z,19.70
2022-11-24T15:56:52.136Z,19.70
2022-11-24T15:59:24.703Z,19.60
2022-11-24T16:01:57.300Z,19.60
2022-11-24T16:04:30.009Z,19.60
2022-11-24T16:07:04.046Z,19.50
2022-11-24T16:09:36.551Z,19.50
2022-11-24T16:12:09.686Z,19.50
2022-11-24T16:14:42.071Z,19.50
2022-11-24T16:17:14.538Z,19.50
2022-11-24T16:19:59.784Z,19.40
2022-11-24T16:22:36.047Z,19.40
2022-11-24T16:25:09.332Z,19.40
2022-11-24T16:27:42.221Z,19.40
2022-11-24T16:30:15.338Z,19.40
2022-11-24T16:32:47.705Z,19.30
2022-11-24T16:35:20.438Z,19.30
2022-11-24T16:37:53.027Z,19.30
2022-11-24T16:40:25.534Z,19.30
2022-11-24T16:42:59.023Z,19.30
2022-11-24T16:45:31.805Z,19.30
2022-11-24T16:48:04.613Z,19.30
2022-11-24T16:50:38.232Z,19.30
2022-11-24T16:53:10.719Z,19.30
2022-11-24T16:55:43.229Z,19.30
2022-11-24T16:58:15.797Z,19.30
2022-11-24T17:00:48.406Z,19.30
2022-11-24T17:03:20.946Z,19.30
2022-11-24T17:06:01.011Z,19.30
2022-11-24T17:08:35.503Z,19.30
2022-11-24T17:11:10.041Z,19.30
2022-11-24T17:13:43.470Z,19.30
2022-11-24T17:16:21.841Z,19.20
2022-11-24T17:18:54.830Z,19.30
2022-11-24T17:21:28.068Z,19.20
2022-11-24T17:24:01.580Z,19.20
2022-11-24T17:26:35.490Z,19.20
2022-11-24T17:29:08.580Z,19.20
2022-11-24T17:31:41.074Z,19.20
2022-11-24T17:34:13.807Z,19.20
2022-11-24T17:36:46.451Z,19.20
2022-11-24T17:39:23.372Z,19.10
2022-11-24T17:41:57.492Z,19.10
2022-11-24T17:44:30.052Z,19.10
2022-11-24T17:47:02.772Z,19.10
2022-11-24T17:49:35.286Z,19.10
2022-11-24T17:52:07.820Z,19.10
2022-11-24T17:54:46.371Z,19.10
2022-11-24T17:57:19.294Z,19.10
2022-11-24T17:59:52.025Z,19.10
2022-11-24T18:02:24.586Z,19.10
2022-11-24T18:04:57.152Z,19.10
2022-11-24T18:07:29.755Z,19.00
2022-11-24T18:10:02.279Z,19.00
2022-11-24T18:12:34.970Z,19.00
2022-11-24T18:15:08.144Z,19.00
2022-11-24T18:17:40.376Z,19.00
2022-11-24T18:20:13.300Z,18.90
2022-11-24T18:25:38.447Z,18.90
2022-11-24T18:28:10.949Z,18.90
2022-11-24T18:30:43.399Z,18.90
2022-11-24T18:33:16.930Z,18.90
2022-11-24T18:36:00.580Z,18.80
2022-11-24T18:38:36.146Z,18.80
2022-11-24T18:41:09.151Z,18.80
2022-11-24T18:43:42.343Z,18.90
2022-11-24T18:46:21.364Z,18.80
2022-11-24T18:48:53.985Z,18.80
2022-11-24T18:51:27.426Z,18.80
2022-11-24T18:54:00.295Z,18.80
2022-11-24T18:56:33.006Z,18.80
2022-11-24T18:59:05.617Z,18.80
2022-11-24T19:01:38.324Z,18.80
2022-11-24T19:04:10.852Z,18.80
2022-11-24T19:06:43.403Z,18.70
2022-11-24T19:09:18.681Z,18.80
2022-11-24T19:11:51.281Z,18.70
2022-11-24T19:14:23.837Z,18.70
2022-11-24T19:16:56.462Z,18.70
2022-11-24T19:19:31.287Z,18.70
2022-11-24T19:22:04.388Z,18.70
2022-11-24T19:24:37.088Z,18.70
2022-11-24T19:27:10.974Z,18.70
2022-11-24T19:29:43.634Z,18.70
2022-11-24T19:32:19.385Z,18.70
2022-11-24T19:34:51.948Z,18.60
2022-11-24T19:37:24.529Z,18.60
2022-11-24T19:39:57.084Z,18.60
2022-11-24T19:42:29.620Z,18.60
2022-11-24T19:45:02.276Z,18.60
2022-11-24T19:47:35.109Z,18.60
2022-11-24T19:50:10.518Z,18.60
2022-11-24T19:52:43.180Z,18.60
2022-11-24T19:55:15.749Z,18.60
2022-11-24T19:57:48.354Z,18.60
2022-11-24T20:00:21.134Z,18.60
2022-11-24T20:02:53.662Z,18.60
2022-11-24T20:05:26.231Z,18.50
2022-11-24T20:07:58.864Z,18.60
2022-11-24T20:10:31.901Z,18.50
2022-11-24T20:13:04.386Z,18.50
2022-11-24T20:15:36.902Z,18.50
2022-11-24T20:18:09.481Z,18.50
2022-11-24T20:20:41.960Z,18.40
2022-11-24T20:23:14.597Z,18.40
2022-11-24T20:25:47.065Z,18.40
2022-11-24T20:28:19.615Z,18.40
2022-11-24T20:30:52.175Z,18.30
2022-11-24T20:33:24.792Z,18.40
2022-11-24T20:36:05.547Z,18.30
2022-11-24T20:38:39.146Z,18.30
2022-11-24T20:41:14.354Z,18.30
2022-11-24T20:43:48.259Z,18.30
2022-11-24T20:46:23.854Z,18.20
2022-11-24T20:48:58.169Z,18.20
2022-11-24T20:51:36.840Z,18.20
2022-11-24T20:54:10.841Z,18.20
2022-11-24T20:56:44.782Z,18.20
2022-11-24T20:59:23.695Z,18.20
2022-11-24T21:01:56.408Z,18.10
2022-11-24T21:04:28.858Z,18.20
2022-11-24T21:07:01.522Z,18.10
2022-11-24T21:09:34.102Z,18.10
2022-11-24T21:12:07.045Z,18.10
2022-11-24T21:14:39.985Z,18.10
2022-11-24T21:17:14.425Z,18.00
2022-11-24T21:19:47.082Z,18.00
2022-11-24T21:22:19.595Z,18.00
2022-11-24T21:24:52.264Z,18.00
2022-11-24T21:27:24.753Z,17.90
2022-11-24T21:29:57.236Z,17.90
2022-11-24T21:32:29.803Z,17.90
2022-11-24T21:35:02.298Z,17.80
2022-11-24T21:37:34.891Z,17.80
2022-11-24T21:40:08.182Z,17.80
2022-11-24T21:42:41.176Z,17.80
2022-11-24T21:45:13.704Z,17.80
2022-11-24T21:47:47.488Z,17.80
2022-11-24T21:50:20.007Z,17.70
2022-11-24T21:52:52.712Z,17.70
2022-11-24T21:55:25.294Z,17.70
2022-11-24T21:57:58.145Z,17.60
2022-11-24T22:00:30.656Z,17.70
2022-11-24T22:03:03.167Z,17.70
2022-11-24T22:05:35.715Z,17.70
2022-11-24T22:08:08.219Z,17.60
2022-11-24T22:10:40.890Z,17.60
2022-11-24T22:13:13.505Z,17.60
2022-11-24T22:15:46.374Z,17.60
2022-11-24T22:18:18.875Z,17.60
2022-11-24T22:20:56.264Z,17.60
2022-11-24T22:23:30.048Z,17.60
2022-11-24T22:26:15.521Z,17.60
2022-11-24T22:28:48.792Z,17.60
2022-11-24T22:31:25.723Z,17.50
2022-11-24T22:33:59.451Z,17.50
2022-11-24T22:36:31.985Z,17.50
2022-11-24T22:39:06.570Z,17.50
2022-11-24T22:41:39.085Z,17.40
2022-11-24T22:44:11.643Z,17.40
2022-11-24T22:47:13.752Z,17.40
2022-11-24T22:50:14.290Z,17.30
2022-11-24T22:52:54.874Z,17.30
2022-11-24T22:55:27.657Z,17.30
2022-11-24T22:58:00.105Z,17.30
2022-11-24T23:00:32.710Z,17.20
2022-11-24T23:03:07.737Z,17.20
2022-11-24T23:05:40.352Z,17.20
2022-11-24T23:08:13.141Z,17.20
2022-11-24T23:10:45.716Z,17.20
2022-11-24T23:13:18.270Z,17.10
2022-11-24T23:15:50.836Z,17.20
2022-11-24T23:18:23.344Z,17.10
2022-11-24T23:20:55.978Z,17.10
2022-11-24T23:23:28.603Z,17.10
2022-11-24T23:26:12.471Z,17.20
2022-11-24T23:28:45.057Z,17.10
2022-11-24T23:31:21.824Z,17.10
2022-11-24T23:33:55.002Z,17.10
2022-11-24T23:36:28.026Z,17.10
2022-11-24T23:39:09.056Z,17.00
2022-11-24T23:41:41.760Z,17.00
2022-11-24T23:44:14.308Z,17.00
2022-11-24T23:46:46.899Z,17.00
2022-11-24T23:49:19.484Z,17.00
2022-11-24T23:51:52.033Z,16.90
2022-11-24T23:54:24.623Z,17.00
2022-11-24T23:56:57.184Z,17.00
2022-11-24T23:59:29.672Z,17.00
